Juneau Airport (JNU)

 

Airport Diagram
Current Weather/Forecast (VFR Conditions)
METAR PAJN 220753Z 07005KT 10SM CLR 00/M13 A3055 RMK AO2 SLP346 T00001133
TAF PAJN 220524Z 2206/2306 07009KT P6SM FEW040 FEW200 FM221900 12010G18KT P6SM SKC FM230300 10008KT P6SM SKC

All Charts

Inbound Traffic (Arrivals)

No inbound traffic.


Outbound Traffic (Departures)

No outbound traffic.